createdAt,value
2023-04-17T00:02:02.398Z,5.15
2023-04-17T00:05:04.471Z,1.85
2023-04-17T00:08:06.784Z,4.35
2023-04-17T00:11:09.237Z,3.08
2023-04-17T00:14:10.984Z,1.67
2023-04-17T00:17:12.870Z,3.50
2023-04-17T00:20:14.837Z,1.63
2023-04-17T00:23:16.544Z,2.08
2023-04-17T00:26:19.571Z,3.88
2023-04-17T00:29:21.269Z,1.90
2023-04-17T00:32:22.953Z,3.05
2023-04-17T00:35:24.645Z,3.42
2023-04-17T00:38:26.381Z,3.30
2023-04-17T00:41:28.092Z,2.38
2023-04-17T00:44:29.746Z,3.67
2023-04-17T00:47:31.697Z,2.25
2023-04-17T00:50:33.431Z,2.15
2023-04-17T00:53:35.215Z,2.00
2023-04-17T00:56:37.092Z,2.63
2023-04-17T00:59:39.058Z,4.70
2023-04-17T01:02:41.001Z,5.10
2023-04-17T01:05:47.522Z,4.47
2023-04-17T01:08:49.388Z,5.90
2023-04-17T01:11:51.053Z,7.93
2023-04-17T01:14:53.392Z,8.85
2023-04-17T01:17:55.318Z,8.85
2023-04-17T01:20:57.063Z,9.93
2023-04-17T01:24:05.106Z,11.10
2023-04-17T01:27:07.095Z,9.48
2023-04-17T01:30:09.394Z,11.18
2023-04-17T01:33:11.442Z,12.95
2023-04-17T01:36:13.345Z,10.32
2023-04-17T01:39:15.007Z,14.60
2023-04-17T01:42:16.700Z,11.50
2023-04-17T01:45:18.417Z,11.50
2023-04-17T01:48:20.570Z,9.75
2023-04-17T01:51:22.195Z,9.40
2023-04-17T01:54:24.957Z,9.55
2023-04-17T01:57:28.055Z,10.57
2023-04-17T02:00:30.076Z,10.77
2023-04-17T02:03:32.034Z,10.52
2023-04-17T02:06:35.051Z,11.38
2023-04-17T02:09:36.688Z,11.30
2023-04-17T02:12:38.345Z,10.48
2023-04-17T02:15:40.332Z,10.85
2023-04-17T02:18:42.125Z,13.43
2023-04-17T02:21:43.779Z,11.70
2023-04-17T02:24:45.636Z,9.85
2023-04-17T02:27:49.546Z,11.45
2023-04-17T02:30:51.198Z,11.82
2023-04-17T02:33:52.873Z,13.13
2023-04-17T02:36:54.861Z,18.25
2023-04-17T02:39:56.501Z,11.57
2023-04-17T02:42:58.167Z,13.10
2023-04-17T02:46:01.228Z,13.20
2023-04-17T02:49:02.874Z,12.15
2023-04-17T02:52:04.789Z,12.50
2023-04-17T02:55:07.009Z,12.05
2023-04-17T02:58:08.809Z,17.58
2023-04-17T03:01:10.950Z,12.98
2023-04-17T03:04:13.155Z,14.70
2023-04-17T03:07:19.401Z,12.88
2023-04-17T03:10:21.061Z,12.52
2023-04-17T03:13:22.998Z,16.27
2023-04-17T03:16:24.931Z,15.05
2023-04-17T03:19:26.657Z,14.02
2023-04-17T03:22:28.430Z,13.85
2023-04-17T03:25:30.334Z,16.30
2023-04-17T03:28:32.440Z,14.38
2023-04-17T03:31:34.127Z,13.30
2023-04-17T03:34:35.784Z,15.60
2023-04-17T03:37:37.662Z,12.88
2023-04-17T03:40:39.334Z,12.70
2023-04-17T03:43:41.146Z,18.92
2023-04-17T03:46:42.946Z,17.13
2023-04-17T03:49:44.774Z,15.05
2023-04-17T03:52:46.523Z,14.70
2023-04-17T03:55:48.238Z,16.13
2023-04-17T03:58:50.228Z,13.60
2023-04-17T04:01:54.108Z,14.18
2023-04-17T04:04:55.940Z,15.20
2023-04-17T04:07:57.857Z,15.57
2023-04-17T04:11:01.206Z,19.27
2023-04-17T04:17:04.649Z,15.88
2023-04-17T04:20:08.784Z,16.00
2023-04-17T04:23:10.442Z,18.38
2023-04-17T04:26:12.399Z,17.35
2023-04-17T04:29:14.346Z,20.50
2023-04-17T04:32:16.902Z,15.32
2023-04-17T04:35:18.668Z,14.25
2023-04-17T04:38:21.215Z,14.50
2023-04-17T04:41:25.141Z,14.52
2023-04-17T04:44:26.813Z,17.10
2023-04-17T04:47:30.796Z,15.10
2023-04-17T04:50:32.492Z,15.65
2023-04-17T04:53:34.131Z,18.38
2023-04-17T04:56:36.005Z,19.08
2023-04-17T04:59:39.088Z,14.73
2023-04-17T05:02:41.015Z,17.73
2023-04-17T05:05:43.393Z,15.15
2023-04-17T05:08:45.263Z,16.95
2023-04-17T05:11:46.890Z,20.40
2023-04-17T05:14:48.526Z,18.67
2023-04-17T05:17:50.597Z,16.85
2023-04-17T05:20:52.468Z,16.00
2023-04-17T05:23:54.231Z,19.33
2023-04-17T05:26:57.062Z,18.15
2023-04-17T05:29:58.700Z,14.50
2023-04-17T05:33:00.970Z,20.17
2023-04-17T05:36:02.741Z,16.90
2023-04-17T05:39:04.939Z,19.02
2023-04-17T05:42:06.594Z,16.17
2023-04-17T05:45:08.755Z,16.92
2023-04-17T05:48:10.769Z,19.13
2023-04-17T05:51:12.458Z,18.90
2023-04-17T05:54:14.156Z,15.02
2023-04-17T05:57:16.020Z,14.68
2023-04-17T06:00:17.812Z,18.42
2023-04-17T06:03:20.334Z,13.98
2023-04-17T06:06:22.333Z,15.55
2023-04-17T06:09:25.725Z,16.35
2023-04-17T06:12:27.571Z,14.50
2023-04-17T06:15:29.204Z,18.52
2023-04-17T06:18:31.037Z,15.45
2023-04-17T06:21:32.792Z,16.17
2023-04-17T06:24:34.544Z,17.17
2023-04-17T06:27:37.238Z,17.42
2023-04-17T06:30:39.150Z,18.15
2023-04-17T06:33:40.901Z,17.73
2023-04-17T06:36:42.831Z,17.90
2023-04-17T06:39:44.505Z,17.88
2023-04-17T06:42:46.124Z,18.77
2023-04-17T06:45:48.359Z,17.38
2023-04-17T06:48:52.276Z,15.88
2023-04-17T06:51:54.039Z,16.70
2023-04-17T06:54:56.364Z,17.35
2023-04-17T06:57:58.401Z,15.55
2023-04-17T07:01:00.029Z,17.10
2023-04-17T07:04:02.312Z,14.23
2023-04-17T07:07:04.222Z,15.82
2023-04-17T07:10:06.813Z,16.02
2023-04-17T07:13:08.697Z,14.77
2023-04-17T07:16:10.608Z,13.30
2023-04-17T07:19:12.576Z,19.08
2023-04-17T07:22:14.421Z,17.08
2023-04-17T07:25:16.192Z,13.55
2023-04-17T07:28:18.264Z,16.15
2023-04-17T07:31:21.789Z,14.63
2023-04-17T07:34:25.211Z,16.15
2023-04-17T07:37:27.048Z,10.35
2023-04-17T07:40:29.114Z,12.02
2023-04-17T07:43:30.774Z,9.70
2023-04-17T07:46:32.676Z,7.07
2023-04-17T07:49:35.198Z,6.97
2023-04-17T07:52:36.882Z,6.68
2023-04-17T07:55:38.588Z,5.15
2023-04-17T07:58:40.336Z,5.28
2023-04-17T08:01:42.340Z,5.15
2023-04-17T08:04:44.882Z,7.05
2023-04-17T08:07:46.871Z,3.13
2023-04-17T08:10:48.547Z,4.95
2023-04-17T08:13:50.191Z,7.32
2023-04-17T08:16:52.354Z,5.07
2023-04-17T08:19:54.092Z,5.45
2023-04-17T08:22:56.028Z,4.07
2023-04-17T08:25:58.237Z,5.65
2023-04-17T08:29:04.562Z,6.05
2023-04-17T08:32:14.646Z,6.63
2023-04-17T08:35:17.555Z,4.28
2023-04-17T08:38:19.259Z,5.43
2023-04-17T08:41:22.130Z,6.72
2023-04-17T08:44:23.865Z,7.97
2023-04-17T08:47:26.063Z,3.65
2023-04-17T08:50:27.849Z,9.63
2023-04-17T08:53:29.512Z,4.18
2023-04-17T08:56:31.511Z,7.18
2023-04-17T08:59:33.194Z,6.78
2023-04-17T09:02:51.769Z,6.68
2023-04-17T09:05:53.537Z,4.32
2023-04-17T09:09:00.303Z,5.78
2023-04-17T09:12:11.228Z,6.47
2023-04-17T09:15:16.590Z,6.72
2023-04-17T09:18:27.339Z,7.43
2023-04-17T09:21:29.128Z,8.27
2023-04-17T09:24:34.697Z,4.50
2023-04-17T09:27:36.484Z,4.55
2023-04-17T09:30:39.231Z,5.47
2023-04-17T09:33:56.883Z,4.70
2023-04-17T09:36:58.613Z,9.48
2023-04-17T09:40:01.227Z,6.07
2023-04-17T09:43:09.494Z,6.72
2023-04-17T09:46:11.922Z,4.35
2023-04-17T09:49:42.657Z,4.68
2023-04-17T09:52:44.850Z,4.20
2023-04-17T09:55:46.564Z,8.05
2023-04-17T09:58:48.714Z,5.32
2023-04-17T10:01:50.897Z,5.55
2023-04-17T10:04:52.636Z,5.00
2023-04-17T10:07:54.593Z,4.55
2023-04-17T10:11:05.986Z,4.50
2023-04-17T10:14:26.194Z,3.83
2023-04-17T10:17:34.114Z,3.20
2023-04-17T10:20:37.990Z,5.45
2023-04-17T10:23:40.032Z,5.43
2023-04-17T10:26:41.930Z,6.10
2023-04-17T10:29:56.210Z,5.85
2023-04-17T10:33:13.123Z,3.35
2023-04-17T10:36:38.322Z,3.90
2023-04-17T10:39:52.937Z,4.65
2023-04-17T10:43:23.851Z,4.05
2023-04-17T10:46:26.054Z,5.05
2023-04-17T10:49:27.835Z,5.25
2023-04-17T10:52:35.491Z,6.10
2023-04-17T10:55:47.250Z,4.38
2023-04-17T10:59:19.472Z,4.32
2023-04-17T11:02:33.652Z,4.07
2023-04-17T11:05:35.948Z,3.33
2023-04-17T11:08:37.853Z,3.08
2023-04-17T11:11:44.281Z,4.60
2023-04-17T11:14:46.738Z,3.90
2023-04-17T11:17:48.896Z,3.42
2023-04-17T11:20:51.188Z,2.72
2023-04-17T11:23:52.846Z,3.80
2023-04-17T11:26:55.034Z,3.35
2023-04-17T11:29:56.903Z,4.00
2023-04-17T11:33:05.727Z,6.00
2023-04-17T11:36:07.774Z,4.63
2023-04-17T11:39:09.576Z,5.53
2023-04-17T11:42:11.385Z,4.72
2023-04-17T11:45:13.028Z,4.50
2023-04-17T11:48:15.774Z,4.00
2023-04-17T11:51:17.864Z,3.83
2023-04-17T11:54:34.125Z,3.63
2023-04-17T11:57:43.340Z,5.20
2023-04-17T12:06:52.729Z,2.72
2023-04-17T12:09:57.900Z,5.07
2023-04-17T12:12:59.637Z,4.70
2023-04-17T12:16:01.827Z,4.38
2023-04-17T12:19:03.690Z,5.28
2023-04-17T12:22:05.447Z,3.55
2023-04-17T12:25:07.673Z,4.35
2023-04-17T12:28:09.383Z,3.88
2023-04-17T12:31:11.157Z,3.40
2023-04-17T12:34:13.038Z,4.13
2023-04-17T12:37:14.989Z,4.97
2023-04-17T12:40:22.358Z,4.93
2023-04-17T12:43:25.742Z,3.33
2023-04-17T12:46:27.618Z,4.68
2023-04-17T12:49:29.282Z,4.20
2023-04-17T12:52:30.928Z,3.58
2023-04-17T12:55:32.784Z,3.45
2023-04-17T12:58:34.738Z,5.22
2023-04-17T13:01:36.622Z,3.75
2023-04-17T13:04:38.560Z,5.07
2023-04-17T13:07:40.664Z,5.63
2023-04-17T13:10:42.612Z,5.75
2023-04-17T13:13:44.384Z,3.85
2023-04-17T13:16:46.271Z,3.67
2023-04-17T13:19:47.990Z,4.47
2023-04-17T13:22:49.792Z,3.50
2023-04-17T13:25:51.469Z,3.70
2023-04-17T13:28:53.247Z,3.13
2023-04-17T13:31:54.896Z,3.63
2023-04-17T13:34:58.617Z,3.95
2023-04-17T13:38:02.939Z,4.25
2023-04-17T13:41:04.658Z,3.92
2023-04-17T13:44:06.486Z,4.25
2023-04-17T13:47:08.594Z,3.10
2023-04-17T13:50:10.319Z,2.95
2023-04-17T13:53:13.487Z,4.03
2023-04-17T13:56:15.442Z,5.53
2023-04-17T13:59:17.156Z,2.80
2023-04-17T14:02:18.983Z,4.60
2023-04-17T14:05:21.022Z,4.85
2023-04-17T14:08:22.714Z,5.15
2023-04-17T14:11:24.726Z,3.72
2023-04-17T14:14:27.165Z,3.35
2023-04-17T14:17:29.068Z,3.10
2023-04-17T14:20:30.996Z,4.25
2023-04-17T14:23:32.661Z,3.35
2023-04-17T14:26:34.405Z,3.38
2023-04-17T14:29:36.030Z,5.22
2023-04-17T14:32:40.679Z,3.35
2023-04-17T14:35:42.369Z,3.40
2023-04-17T14:38:48.817Z,3.38
2023-04-17T14:41:50.573Z,5.28
2023-04-17T14:44:52.266Z,4.63
2023-04-17T14:47:54.255Z,6.25
2023-04-17T14:50:55.898Z,3.38
2023-04-17T14:53:57.799Z,3.97
2023-04-17T14:56:59.758Z,3.35
2023-04-17T15:00:01.434Z,4.50
2023-04-17T15:03:03.451Z,5.10
2023-04-17T15:06:05.475Z,5.28
2023-04-17T15:09:07.116Z,4.25
2023-04-17T15:12:08.825Z,3.35
2023-04-17T15:15:11.123Z,6.07
2023-04-17T15:18:14.096Z,3.47
2023-04-17T15:21:16.496Z,7.47
2023-04-17T15:24:18.226Z,4.65
2023-04-17T15:27:20.130Z,6.03
2023-04-17T15:30:21.805Z,6.05
2023-04-17T15:33:23.518Z,6.03
2023-04-17T15:36:29.556Z,8.55
2023-04-17T15:39:31.356Z,4.25
2023-04-17T15:42:33.195Z,6.43
2023-04-17T15:45:34.826Z,5.65
2023-04-17T15:48:36.682Z,6.68
2023-04-17T15:51:40.306Z,6.18
2023-04-17T15:54:43.192Z,6.55
2023-04-17T15:57:45.106Z,6.53
2023-04-17T16:00:46.807Z,5.82
2023-04-17T16:03:48.631Z,8.05
2023-04-17T16:06:50.961Z,8.63
2023-04-17T16:09:52.593Z,5.90
2023-04-17T16:12:54.247Z,6.80
2023-04-17T16:15:56.238Z,6.53
2023-04-17T16:18:57.946Z,5.35
2023-04-17T16:21:59.712Z,7.47
2023-04-17T16:25:04.140Z,6.93
2023-04-17T16:28:07.034Z,6.60
2023-04-17T16:31:11.899Z,6.78
2023-04-17T16:34:14.345Z,7.55
2023-04-17T16:37:16.732Z,5.38
2023-04-17T16:40:18.494Z,5.32
2023-04-17T16:43:20.243Z,5.75
2023-04-17T16:46:35.592Z,6.57
2023-04-17T16:49:46.662Z,7.07
2023-04-17T16:52:51.177Z,6.75
2023-04-17T16:55:53.363Z,8.23
2023-04-17T16:58:55.787Z,6.70
2023-04-17T17:01:57.950Z,7.13
2023-04-17T17:08:02.097Z,6.13
2023-04-17T17:11:04.851Z,8.32
2023-04-17T17:14:06.487Z,10.63
2023-04-17T17:17:08.175Z,10.82
2023-04-17T17:20:13.098Z,9.02
2023-04-17T17:23:14.904Z,7.97
2023-04-17T17:26:17.631Z,7.32
2023-04-17T17:29:19.368Z,7.88
2023-04-17T17:32:21.171Z,7.95
2023-04-17T17:35:23.136Z,8.98
2023-04-17T17:38:24.998Z,6.97
2023-04-17T17:41:26.892Z,8.88
2023-04-17T17:44:28.576Z,8.70
2023-04-17T17:47:30.645Z,8.85
2023-04-17T17:50:32.588Z,10.23
2023-04-17T17:53:34.347Z,7.50
2023-04-17T17:56:36.238Z,9.23
2023-04-17T17:59:40.833Z,7.57
2023-04-17T18:02:42.889Z,7.88
2023-04-17T18:05:47.511Z,7.45
2023-04-17T18:08:50.332Z,8.43
2023-04-17T18:11:52.521Z,7.97
2023-04-17T18:14:54.585Z,9.68
2023-04-17T18:17:56.301Z,9.38
2023-04-17T18:20:58.000Z,8.07
2023-04-17T18:24:01.308Z,9.70
2023-04-17T18:27:04.435Z,10.30
2023-04-17T18:30:17.864Z,9.65
2023-04-17T18:33:19.600Z,11.80
2023-04-17T18:36:26.796Z,11.35
2023-04-17T18:39:31.300Z,9.85
2023-04-17T18:42:36.278Z,10.07
2023-04-17T18:45:37.931Z,9.40
2023-04-17T18:48:39.908Z,9.30
2023-04-17T18:51:47.576Z,10.65
2023-04-17T18:54:49.306Z,9.50
2023-04-17T18:58:10.037Z,9.95
2023-04-17T19:01:11.690Z,9.15
2023-04-17T19:04:14.888Z,9.70
2023-04-17T19:10:19.736Z,12.75
2023-04-17T19:13:21.476Z,9.40
2023-04-17T19:16:24.386Z,11.57
2023-04-17T19:19:26.184Z,10.02
2023-04-17T19:22:27.970Z,12.90
2023-04-17T19:25:29.739Z,9.50
2023-04-17T19:28:31.468Z,8.27
2023-04-17T19:31:33.496Z,11.88
2023-04-17T19:34:35.193Z,12.18
2023-04-17T19:37:37.077Z,11.70
2023-04-17T19:40:38.810Z,12.23
2023-04-17T19:43:47.113Z,12.18
2023-04-17T19:46:48.810Z,15.65
2023-04-17T19:49:50.483Z,12.18
2023-04-17T19:52:52.255Z,13.43
2023-04-17T19:55:53.896Z,12.77
2023-04-17T19:58:58.012Z,14.57
2023-04-17T20:01:59.689Z,13.15
2023-04-17T20:05:01.368Z,10.98
2023-04-17T20:08:03.143Z,12.77
2023-04-17T20:11:06.249Z,13.35
2023-04-17T20:14:08.017Z,11.90
2023-04-17T20:17:10.205Z,12.75
2023-04-17T20:20:12.189Z,14.80
2023-04-17T20:23:13.888Z,13.18
2023-04-17T20:26:15.576Z,14.93
2023-04-17T20:29:17.298Z,15.77
2023-04-17T20:32:20.227Z,14.15
2023-04-17T20:35:24.479Z,13.68
2023-04-17T20:38:26.227Z,15.35
2023-04-17T20:41:28.019Z,17.27
2023-04-17T20:44:31.049Z,14.98
2023-04-17T20:47:32.723Z,15.25
2023-04-17T20:50:34.453Z,19.50
2023-04-17T20:53:36.324Z,16.15
2023-04-17T20:56:37.977Z,16.80
2023-04-17T20:59:39.619Z,17.45
2023-04-17T21:02:41.443Z,16.73
2023-04-17T21:05:43.328Z,19.70
2023-04-17T21:08:45.599Z,20.58
2023-04-17T21:11:50.082Z,18.55
2023-04-17T21:14:52.898Z,21.85
2023-04-17T21:17:54.717Z,19.75
2023-04-17T21:20:56.428Z,21.45
2023-04-17T21:23:58.100Z,17.15
2023-04-17T21:26:59.866Z,18.50
2023-04-17T21:30:01.660Z,14.40
2023-04-17T21:33:03.649Z,15.85
2023-04-17T21:36:05.829Z,17.88
2023-04-17T21:39:07.494Z,20.65
2023-04-17T21:42:09.956Z,17.98
2023-04-17T21:45:12.016Z,20.23
2023-04-17T21:48:17.779Z,18.77
2023-04-17T21:51:19.434Z,20.33
2023-04-17T21:54:21.780Z,22.50
2023-04-17T21:57:23.430Z,18.08
2023-04-17T22:00:25.399Z,20.45
2023-04-17T22:03:27.201Z,21.02
2023-04-17T22:06:28.890Z,20.70
2023-04-17T22:09:30.559Z,18.33
2023-04-17T22:12:32.277Z,21.45
2023-04-17T22:15:36.744Z,20.88
2023-04-17T22:18:38.455Z,21.77
2023-04-17T22:21:40.137Z,21.13
2023-04-17T22:24:41.908Z,20.20
2023-04-17T22:27:43.749Z,21.98
2023-04-17T22:30:45.455Z,18.17
2023-04-17T22:33:47.109Z,21.17
2023-04-17T22:36:48.797Z,21.25
2023-04-17T22:39:50.637Z,23.98
2023-04-17T22:42:52.349Z,22.58
2023-04-17T22:45:54.044Z,18.38
2023-04-17T22:48:57.813Z,19.58
2023-04-17T22:51:59.485Z,18.55
2023-04-17T22:55:01.613Z,24.30
2023-04-17T22:58:03.719Z,19.98
2023-04-17T23:01:05.426Z,15.65
2023-04-17T23:04:07.314Z,15.95
2023-04-17T23:07:09.101Z,17.33
2023-04-17T23:10:10.815Z,17.10
2023-04-17T23:13:12.512Z,19.30
2023-04-17T23:16:15.444Z,18.60
2023-04-17T23:19:19.251Z,16.50
2023-04-17T23:22:20.919Z,20.65
2023-04-17T23:25:22.613Z,17.65
2023-04-17T23:28:30.339Z,18.73
2023-04-17T23:31:31.998Z,20.60
2023-04-17T23:34:33.692Z,21.30
2023-04-17T23:37:35.743Z,20.40
2023-04-17T23:40:37.448Z,17.00
2023-04-17T23:43:39.127Z,16.23
2023-04-17T23:46:40.982Z,17.98
2023-04-17T23:49:42.652Z,20.30
2023-04-17T23:52:44.309Z,16.65
2023-04-17T23:55:46.124Z,20.60
2023-04-17T23:58:47.796Z,20.05
